sensor_id;sensor_type;location;lat;lon;timestamp;P1;durP1;ratioP1;P2;durP2;ratioP2
24153;SDS011;12312;53.362;-1.518;2023-04-24T00:02:18;13.00;;;3.72;;
24153;SDS011;12312;53.362;-1.518;2023-04-24T00:05:03;9.98;;;3.22;;
24153;SDS011;12312;53.362;-1.518;2023-04-24T00:07:48;10.23;;;3.15;;
24153;SDS011;12312;53.362;-1.518;2023-04-24T00:10:32;11.13;;;3.13;;
24153;SDS011;12312;53.362;-1.518;2023-04-24T00:13:15;7.53;;;3.22;;
24153;SDS011;12312;53.362;-1.518;2023-04-24T00:16:00;6.47;;;2.92;;
24153;SDS011;12312;53.362;-1.518;2023-04-24T00:18:44;10.32;;;3.00;;
24153;SDS011;12312;53.362;-1.518;2023-04-24T00:21:28;9.25;;;3.38;;
24153;SDS011;12312;53.362;-1.518;2023-04-24T00:24:13;11.75;;;3.55;;
24153;SDS011;12312;53.362;-1.518;2023-04-24T00:26:57;11.68;;;3.10;;
24153;SDS011;12312;53.362;-1.518;2023-04-24T00:29:42;11.30;;;3.25;;
24153;SDS011;12312;53.362;-1.518;2023-04-24T00:32:26;10.57;;;3.85;;
24153;SDS011;12312;53.362;-1.518;2023-04-24T00:35:10;9.23;;;2.83;;
24153;SDS011;12312;53.362;-1.518;2023-04-24T00:37:54;7.40;;;2.60;;
24153;SDS011;12312;53.362;-1.518;2023-04-24T00:40:38;11.38;;;2.80;;
24153;SDS011;12312;53.362;-1.518;2023-04-24T00:43:22;8.77;;;3.17;;
24153;SDS011;12312;53.362;-1.518;2023-04-24T00:46:06;6.60;;;2.83;;
24153;SDS011;12312;53.362;-1.518;2023-04-24T00:48:51;8.93;;;2.90;;
24153;SDS011;12312;53.362;-1.518;2023-04-24T00:51:35;8.52;;;2.42;;
24153;SDS011;12312;53.362;-1.518;2023-04-24T00:54:20;8.32;;;2.60;;
24153;SDS011;12312;53.362;-1.518;2023-04-24T00:57:04;6.22;;;2.72;;
24153;SDS011;12312;53.362;-1.518;2023-04-24T00:59:48;6.53;;;2.30;;
24153;SDS011;12312;53.362;-1.518;2023-04-24T01:02:33;7.72;;;2.65;;
24153;SDS011;12312;53.362;-1.518;2023-04-24T01:05:18;8.30;;;2.63;;
24153;SDS011;12312;53.362;-1.518;2023-04-24T01:08:02;5.88;;;1.80;;
24153;SDS011;12312;53.362;-1.518;2023-04-24T01:10:47;5.20;;;2.25;;
24153;SDS011;12312;53.362;-1.518;2023-04-24T01:13:32;8.35;;;2.40;;
24153;SDS011;12312;53.362;-1.518;2023-04-24T01:16:17;8.27;;;2.97;;
24153;SDS011;12312;53.362;-1.518;2023-04-24T01:19:05;7.80;;;2.33;;
24153;SDS011;12312;53.362;-1.518;2023-04-24T01:21:51;6.32;;;2.25;;
24153;SDS011;12312;53.362;-1.518;2023-04-24T01:24:38;10.48;;;2.53;;
24153;SDS011;12312;53.362;-1.518;2023-04-24T01:27:22;9.30;;;2.40;;
24153;SDS011;12312;53.362;-1.518;2023-04-24T01:30:07;5.68;;;2.45;;
24153;SDS011;12312;53.362;-1.518;2023-04-24T01:32:51;5.43;;;2.33;;
24153;SDS011;12312;53.362;-1.518;2023-04-24T01:35:36;7.13;;;2.22;;
24153;SDS011;12312;53.362;-1.518;2023-04-24T01:38:21;11.60;;;1.98;;
24153;SDS011;12312;53.362;-1.518;2023-04-24T01:41:05;7.00;;;2.10;;
24153;SDS011;12312;53.362;-1.518;2023-04-24T01:43:49;6.93;;;2.20;;
24153;SDS011;12312;53.362;-1.518;2023-04-24T01:46:34;6.88;;;2.10;;
24153;SDS011;12312;53.362;-1.518;2023-04-24T01:49:19;11.45;;;2.55;;
24153;SDS011;12312;53.362;-1.518;2023-04-24T01:52:04;6.82;;;2.10;;
24153;SDS011;12312;53.362;-1.518;2023-04-24T01:54:48;6.80;;;2.25;;
24153;SDS011;12312;53.362;-1.518;2023-04-24T01:57:32;4.35;;;1.92;;
24153;SDS011;12312;53.362;-1.518;2023-04-24T02:00:17;6.30;;;1.85;;
24153;SDS011;12312;53.362;-1.518;2023-04-24T02:03:01;8.20;;;1.92;;
24153;SDS011;12312;53.362;-1.518;2023-04-24T02:05:45;6.07;;;2.13;;
24153;SDS011;12312;53.362;-1.518;2023-04-24T02:08:29;7.72;;;2.20;;
24153;SDS011;12312;53.362;-1.518;2023-04-24T02:11:13;6.88;;;1.70;;
24153;SDS011;12312;53.362;-1.518;2023-04-24T02:13:57;6.40;;;1.50;;
24153;SDS011;12312;53.362;-1.518;2023-04-24T02:16:42;4.35;;;1.88;;
24153;SDS011;12312;53.362;-1.518;2023-04-24T02:19:27;8.00;;;2.47;;
24153;SDS011;12312;53.362;-1.518;2023-04-24T02:22:11;9.82;;;2.20;;
24153;SDS011;12312;53.362;-1.518;2023-04-24T02:24:55;7.53;;;2.28;;
24153;SDS011;12312;53.362;-1.518;2023-04-24T02:27:39;10.07;;;2.17;;
24153;SDS011;12312;53.362;-1.518;2023-04-24T02:30:23;4.65;;;2.20;;
24153;SDS011;12312;53.362;-1.518;2023-04-24T02:33:08;8.00;;;2.10;;
24153;SDS011;12312;53.362;-1.518;2023-04-24T02:35:52;2.47;;;1.38;;
24153;SDS011;12312;53.362;-1.518;2023-04-24T02:38:36;5.82;;;2.00;;
24153;SDS011;12312;53.362;-1.518;2023-04-24T02:41:20;7.05;;;1.88;;
24153;SDS011;12312;53.362;-1.518;2023-04-24T02:44:04;4.72;;;2.00;;
24153;SDS011;12312;53.362;-1.518;2023-04-24T02:46:48;12.68;;;2.22;;
24153;SDS011;12312;53.362;-1.518;2023-04-24T02:49:31;7.07;;;2.50;;
24153;SDS011;12312;53.362;-1.518;2023-04-24T02:52:16;6.45;;;2.20;;
24153;SDS011;12312;53.362;-1.518;2023-04-24T02:55:00;7.07;;;2.30;;
24153;SDS011;12312;53.362;-1.518;2023-04-24T02:57:44;7.03;;;2.10;;
24153;SDS011;12312;53.362;-1.518;2023-04-24T03:00:28;8.52;;;1.98;;
24153;SDS011;12312;53.362;-1.518;2023-04-24T03:03:12;6.35;;;2.15;;
24153;SDS011;12312;53.362;-1.518;2023-04-24T03:05:56;8.00;;;1.95;;
24153;SDS011;12312;53.362;-1.518;2023-04-24T03:08:40;6.00;;;1.90;;
24153;SDS011;12312;53.362;-1.518;2023-04-24T03:11:24;7.10;;;2.15;;
24153;SDS011;12312;53.362;-1.518;2023-04-24T03:14:08;12.52;;;2.30;;
24153;SDS011;12312;53.362;-1.518;2023-04-24T03:16:52;8.05;;;2.00;;
24153;SDS011;12312;53.362;-1.518;2023-04-24T03:19:36;4.75;;;2.20;;
24153;SDS011;12312;53.362;-1.518;2023-04-24T03:22:20;11.50;;;2.85;;
24153;SDS011;12312;53.362;-1.518;2023-04-24T03:25:04;5.72;;;1.80;;
24153;SDS011;12312;53.362;-1.518;2023-04-24T03:27:49;11.82;;;1.88;;
24153;SDS011;12312;53.362;-1.518;2023-04-24T03:30:33;9.50;;;2.22;;
24153;SDS011;12312;53.362;-1.518;2023-04-24T03:33:17;5.80;;;2.00;;
24153;SDS011;12312;53.362;-1.518;2023-04-24T03:36:01;7.07;;;2.10;;
24153;SDS011;12312;53.362;-1.518;2023-04-24T03:38:45;6.88;;;2.42;;
24153;SDS011;12312;53.362;-1.518;2023-04-24T03:41:28;10.60;;;2.03;;
24153;SDS011;12312;53.362;-1.518;2023-04-24T03:44:13;7.15;;;1.80;;
24153;SDS011;12312;53.362;-1.518;2023-04-24T03:46:57;7.53;;;2.03;;
24153;SDS011;12312;53.362;-1.518;2023-04-24T03:49:42;7.78;;;2.25;;
24153;SDS011;12312;53.362;-1.518;2023-04-24T03:52:26;7.35;;;2.25;;
24153;SDS011;12312;53.362;-1.518;2023-04-24T03:55:10;8.63;;;2.30;;
24153;SDS011;12312;53.362;-1.518;2023-04-24T03:57:56;7.28;;;1.80;;
24153;SDS011;12312;53.362;-1.518;2023-04-24T04:00:40;6.93;;;1.88;;
24153;SDS011;12312;53.362;-1.518;2023-04-24T04:03:24;6.50;;;2.30;;
24153;SDS011;12312;53.362;-1.518;2023-04-24T04:06:09;5.85;;;1.88;;
24153;SDS011;12312;53.362;-1.518;2023-04-24T04:08:54;3.28;;;1.50;;
24153;SDS011;12312;53.362;-1.518;2023-04-24T04:11:38;11.82;;;2.15;;
24153;SDS011;12312;53.362;-1.518;2023-04-24T04:14:22;8.70;;;2.40;;
24153;SDS011;12312;53.362;-1.518;2023-04-24T04:17:07;8.43;;;2.38;;
24153;SDS011;12312;53.362;-1.518;2023-04-24T04:19:51;12.70;;;2.75;;
24153;SDS011;12312;53.362;-1.518;2023-04-24T04:22:38;6.07;;;2.13;;
24153;SDS011;12312;53.362;-1.518;2023-04-24T04:25:22;8.82;;;2.10;;
24153;SDS011;12312;53.362;-1.518;2023-04-24T04:28:06;8.20;;;2.00;;
24153;SDS011;12312;53.362;-1.518;2023-04-24T04:30:50;7.53;;;3.22;;
24153;SDS011;12312;53.362;-1.518;2023-04-24T04:33:37;7.38;;;2.45;;
24153;SDS011;12312;53.362;-1.518;2023-04-24T04:39:07;5.47;;;2.10;;
24153;SDS011;12312;53.362;-1.518;2023-04-24T04:41:51;10.80;;;2.25;;
24153;SDS011;12312;53.362;-1.518;2023-04-24T04:44:36;8.85;;;2.60;;
24153;SDS011;12312;53.362;-1.518;2023-04-24T04:47:20;5.15;;;1.80;;
24153;SDS011;12312;53.362;-1.518;2023-04-24T04:50:08;12.55;;;2.42;;
24153;SDS011;12312;53.362;-1.518;2023-04-24T04:52:53;11.57;;;2.30;;
24153;SDS011;12312;53.362;-1.518;2023-04-24T04:55:37;4.85;;;2.05;;
24153;SDS011;12312;53.362;-1.518;2023-04-24T04:58:22;7.63;;;2.42;;
24153;SDS011;12312;53.362;-1.518;2023-04-24T05:01:06;6.85;;;2.60;;
24153;SDS011;12312;53.362;-1.518;2023-04-24T05:03:50;10.77;;;2.20;;
24153;SDS011;12312;53.362;-1.518;2023-04-24T05:06:34;7.45;;;2.53;;
24153;SDS011;12312;53.362;-1.518;2023-04-24T05:09:18;8.70;;;2.13;;
24153;SDS011;12312;53.362;-1.518;2023-04-24T05:12:03;10.07;;;2.40;;
24153;SDS011;12312;53.362;-1.518;2023-04-24T05:14:47;8.80;;;2.33;;
24153;SDS011;12312;53.362;-1.518;2023-04-24T05:17:31;9.90;;;2.70;;
24153;SDS011;12312;53.362;-1.518;2023-04-24T05:20:15;7.75;;;2.72;;
24153;SDS011;12312;53.362;-1.518;2023-04-24T05:22:59;8.30;;;2.10;;
24153;SDS011;12312;53.362;-1.518;2023-04-24T05:25:43;6.82;;;2.10;;
24153;SDS011;12312;53.362;-1.518;2023-04-24T05:28:27;6.32;;;1.88;;
24153;SDS011;12312;53.362;-1.518;2023-04-24T05:31:14;10.50;;;2.80;;
24153;SDS011;12312;53.362;-1.518;2023-04-24T05:33:58;9.15;;;2.50;;
24153;SDS011;12312;53.362;-1.518;2023-04-24T05:36:42;14.57;;;3.15;;
24153;SDS011;12312;53.362;-1.518;2023-04-24T05:39:26;8.20;;;2.35;;
24153;SDS011;12312;53.362;-1.518;2023-04-24T05:42:10;10.65;;;2.33;;
24153;SDS011;12312;53.362;-1.518;2023-04-24T05:44:54;11.55;;;2.90;;
24153;SDS011;12312;53.362;-1.518;2023-04-24T05:47:38;10.13;;;2.25;;
24153;SDS011;12312;53.362;-1.518;2023-04-24T05:50:22;9.57;;;2.92;;
24153;SDS011;12312;53.362;-1.518;2023-04-24T05:53:06;10.25;;;2.22;;
24153;SDS011;12312;53.362;-1.518;2023-04-24T05:55:51;9.30;;;2.47;;
24153;SDS011;12312;53.362;-1.518;2023-04-24T05:58:34;11.68;;;2.47;;
24153;SDS011;12312;53.362;-1.518;2023-04-24T06:01:18;10.00;;;2.47;;
24153;SDS011;12312;53.362;-1.518;2023-04-24T06:04:03;10.82;;;2.88;;
24153;SDS011;12312;53.362;-1.518;2023-04-24T06:06:47;11.90;;;3.13;;
24153;SDS011;12312;53.362;-1.518;2023-04-24T06:09:34;8.65;;;2.70;;
24153;SDS011;12312;53.362;-1.518;2023-04-24T06:12:19;12.95;;;2.88;;
24153;SDS011;12312;53.362;-1.518;2023-04-24T06:15:03;11.13;;;2.88;;
24153;SDS011;12312;53.362;-1.518;2023-04-24T06:17:47;15.55;;;2.88;;
24153;SDS011;12312;53.362;-1.518;2023-04-24T06:20:31;11.32;;;2.53;;
24153;SDS011;12312;53.362;-1.518;2023-04-24T06:23:15;9.55;;;2.72;;
24153;SDS011;12312;53.362;-1.518;2023-04-24T06:26:00;14.38;;;3.50;;
24153;SDS011;12312;53.362;-1.518;2023-04-24T06:28:44;12.05;;;2.95;;
24153;SDS011;12312;53.362;-1.518;2023-04-24T06:31:27;10.73;;;2.45;;
24153;SDS011;12312;53.362;-1.518;2023-04-24T06:34:11;11.40;;;3.00;;
24153;SDS011;12312;53.362;-1.518;2023-04-24T06:36:56;12.85;;;3.40;;
24153;SDS011;12312;53.362;-1.518;2023-04-24T06:39:40;8.93;;;2.72;;
24153;SDS011;12312;53.362;-1.518;2023-04-24T06:42:24;12.10;;;2.88;;
24153;SDS011;12312;53.362;-1.518;2023-04-24T06:45:09;14.73;;;2.97;;
24153;SDS011;12312;53.362;-1.518;2023-04-24T06:47:53;16.90;;;3.17;;
24153;SDS011;12312;53.362;-1.518;2023-04-24T06:50:37;12.25;;;2.78;;
24153;SDS011;12312;53.362;-1.518;2023-04-24T06:53:21;11.15;;;2.75;;
24153;SDS011;12312;53.362;-1.518;2023-04-24T06:56:05;16.00;;;3.20;;
24153;SDS011;12312;53.362;-1.518;2023-04-24T06:58:49;15.45;;;3.17;;
24153;SDS011;12312;53.362;-1.518;2023-04-24T07:01:33;12.13;;;3.25;;
24153;SDS011;12312;53.362;-1.518;2023-04-24T07:04:18;19.75;;;3.72;;
24153;SDS011;12312;53.362;-1.518;2023-04-24T07:07:02;16.02;;;3.40;;
24153;SDS011;12312;53.362;-1.518;2023-04-24T07:09:46;28.27;;;4.18;;
24153;SDS011;12312;53.362;-1.518;2023-04-24T07:12:30;22.75;;;4.10;;
24153;SDS011;12312;53.362;-1.518;2023-04-24T07:15:14;16.65;;;4.75;;
24153;SDS011;12312;53.362;-1.518;2023-04-24T07:17:58;16.50;;;3.88;;
24153;SDS011;12312;53.362;-1.518;2023-04-24T07:20:42;21.02;;;3.78;;
24153;SDS011;12312;53.362;-1.518;2023-04-24T07:23:26;18.55;;;3.50;;
24153;SDS011;12312;53.362;-1.518;2023-04-24T07:26:11;16.85;;;3.90;;
24153;SDS011;12312;53.362;-1.518;2023-04-24T07:28:55;19.50;;;3.65;;
24153;SDS011;12312;53.362;-1.518;2023-04-24T07:31:39;17.98;;;3.47;;
24153;SDS011;12312;53.362;-1.518;2023-04-24T07:34:24;19.38;;;3.97;;
24153;SDS011;12312;53.362;-1.518;2023-04-24T07:37:08;17.52;;;3.83;;
24153;SDS011;12312;53.362;-1.518;2023-04-24T07:39:52;15.38;;;4.18;;
24153;SDS011;12312;53.362;-1.518;2023-04-24T07:42:36;18.52;;;3.60;;
24153;SDS011;12312;53.362;-1.518;2023-04-24T07:45:20;12.43;;;3.72;;
24153;SDS011;12312;53.362;-1.518;2023-04-24T07:48:04;19.23;;;3.83;;
24153;SDS011;12312;53.362;-1.518;2023-04-24T07:50:48;10.10;;;3.75;;
24153;SDS011;12312;53.362;-1.518;2023-04-24T07:53:32;13.48;;;3.38;;
24153;SDS011;12312;53.362;-1.518;2023-04-24T07:56:16;16.92;;;4.18;;
24153;SDS011;12312;53.362;-1.518;2023-04-24T07:59:01;16.23;;;3.47;;
24153;SDS011;12312;53.362;-1.518;2023-04-24T08:01:44;18.42;;;3.47;;
24153;SDS011;12312;53.362;-1.518;2023-04-24T08:04:29;19.55;;;3.95;;
24153;SDS011;12312;53.362;-1.518;2023-04-24T08:07:13;11.90;;;3.50;;
24153;SDS011;12312;53.362;-1.518;2023-04-24T08:09:57;16.67;;;4.03;;
24153;SDS011;12312;53.362;-1.518;2023-04-24T08:12:42;13.13;;;3.50;;
24153;SDS011;12312;53.362;-1.518;2023-04-24T08:15:27;16.63;;;4.13;;
24153;SDS011;12312;53.362;-1.518;2023-04-24T08:18:11;12.63;;;3.35;;
24153;SDS011;12312;53.362;-1.518;2023-04-24T08:20:56;11.52;;;3.53;;
24153;SDS011;12312;53.362;-1.518;2023-04-24T08:23:45;18.15;;;3.65;;
24153;SDS011;12312;53.362;-1.518;2023-04-24T08:26:29;15.63;;;3.63;;
24153;SDS011;12312;53.362;-1.518;2023-04-24T08:29:13;13.18;;;4.03;;
24153;SDS011;12312;53.362;-1.518;2023-04-24T08:31:57;13.02;;;3.63;;
24153;SDS011;12312;53.362;-1.518;2023-04-24T08:34:42;11.02;;;3.78;;
24153;SDS011;12312;53.362;-1.518;2023-04-24T08:37:26;8.70;;;2.60;;
24153;SDS011;12312;53.362;-1.518;2023-04-24T08:40:14;22.83;;;3.92;;
24153;SDS011;12312;53.362;-1.518;2023-04-24T08:42:59;11.90;;;3.35;;
24153;SDS011;12312;53.362;-1.518;2023-04-24T08:45:44;14.98;;;4.15;;
24153;SDS011;12312;53.362;-1.518;2023-04-24T08:48:28;17.55;;;3.95;;
24153;SDS011;12312;53.362;-1.518;2023-04-24T08:51:13;11.02;;;3.72;;
24153;SDS011;12312;53.362;-1.518;2023-04-24T08:53:57;14.05;;;3.55;;
24153;SDS011;12312;53.362;-1.518;2023-04-24T08:56:42;17.23;;;3.88;;
24153;SDS011;12312;53.362;-1.518;2023-04-24T08:59:28;13.40;;;3.40;;
24153;SDS011;12312;53.362;-1.518;2023-04-24T09:02:13;19.83;;;4.03;;
24153;SDS011;12312;53.362;-1.518;2023-04-24T09:04:58;11.82;;;3.60;;
24153;SDS011;12312;53.362;-1.518;2023-04-24T09:07:44;17.02;;;4.28;;
24153;SDS011;12312;53.362;-1.518;2023-04-24T09:10:32;17.33;;;3.42;;
24153;SDS011;12312;53.362;-1.518;2023-04-24T09:13:21;16.38;;;4.00;;
24153;SDS011;12312;53.362;-1.518;2023-04-24T09:16:05;18.95;;;3.88;;
24153;SDS011;12312;53.362;-1.518;2023-04-24T09:18:50;13.93;;;3.33;;
24153;SDS011;12312;53.362;-1.518;2023-04-24T09:21:34;13.98;;;3.45;;
24153;SDS011;12312;53.362;-1.518;2023-04-24T09:24:19;19.77;;;4.40;;
24153;SDS011;12312;53.362;-1.518;2023-04-24T09:27:06;15.73;;;3.65;;
24153;SDS011;12312;53.362;-1.518;2023-04-24T09:29:54;17.15;;;4.20;;
24153;SDS011;12312;53.362;-1.518;2023-04-24T09:32:39;18.70;;;4.10;;
24153;SDS011;12312;53.362;-1.518;2023-04-24T09:35:24;20.35;;;4.38;;
24153;SDS011;12312;53.362;-1.518;2023-04-24T09:38:08;19.60;;;5.05;;
24153;SDS011;12312;53.362;-1.518;2023-04-24T09:40:53;13.57;;;3.97;;
24153;SDS011;12312;53.362;-1.518;2023-04-24T09:43:37;16.45;;;4.43;;
24153;SDS011;12312;53.362;-1.518;2023-04-24T09:46:28;10.73;;;3.42;;
24153;SDS011;12312;53.362;-1.518;2023-04-24T09:49:15;21.20;;;4.10;;
24153;SDS011;12312;53.362;-1.518;2023-04-24T09:54:52;21.85;;;4.65;;
24153;SDS011;12312;53.362;-1.518;2023-04-24T09:57:46;15.93;;;4.03;;
24153;SDS011;12312;53.362;-1.518;2023-04-24T10:00:32;13.90;;;4.10;;
24153;SDS011;12312;53.362;-1.518;2023-04-24T10:03:17;15.13;;;3.90;;
24153;SDS011;12312;53.362;-1.518;2023-04-24T10:06:02;12.82;;;3.78;;
24153;SDS011;12312;53.362;-1.518;2023-04-24T10:08:52;17.10;;;3.92;;
24153;SDS011;12312;53.362;-1.518;2023-04-24T10:11:36;11.77;;;4.47;;
24153;SDS011;12312;53.362;-1.518;2023-04-24T10:14:21;15.68;;;4.03;;
24153;SDS011;12312;53.362;-1.518;2023-04-24T10:17:07;12.43;;;3.63;;
24153;SDS011;12312;53.362;-1.518;2023-04-24T10:19:51;15.40;;;4.10;;
24153;SDS011;12312;53.362;-1.518;2023-04-24T10:22:36;15.25;;;4.28;;
24153;SDS011;12312;53.362;-1.518;2023-04-24T10:25:22;11.52;;;3.30;;
24153;SDS011;12312;53.362;-1.518;2023-04-24T10:28:07;13.07;;;3.30;;
24153;SDS011;12312;53.362;-1.518;2023-04-24T10:30:54;15.48;;;3.53;;
24153;SDS011;12312;53.362;-1.518;2023-04-24T10:33:40;10.32;;;3.60;;
24153;SDS011;12312;53.362;-1.518;2023-04-24T10:36:26;11.70;;;3.47;;
24153;SDS011;12312;53.362;-1.518;2023-04-24T10:39:12;13.60;;;3.15;;
24153;SDS011;12312;53.362;-1.518;2023-04-24T10:41:59;12.70;;;3.47;;
24153;SDS011;12312;53.362;-1.518;2023-04-24T10:44:43;14.18;;;4.20;;
24153;SDS011;12312;53.362;-1.518;2023-04-24T10:47:39;14.45;;;4.10;;
24153;SDS011;12312;53.362;-1.518;2023-04-24T10:50:25;19.90;;;3.67;;
24153;SDS011;12312;53.362;-1.518;2023-04-24T10:53:12;14.55;;;3.42;;
24153;SDS011;12312;53.362;-1.518;2023-04-24T10:56:05;11.57;;;3.30;;
24153;SDS011;12312;53.362;-1.518;2023-04-24T10:58:52;11.50;;;2.90;;
24153;SDS011;12312;53.362;-1.518;2023-04-24T11:01:37;11.60;;;3.88;;
24153;SDS011;12312;53.362;-1.518;2023-04-24T11:04:32;15.38;;;4.15;;
24153;SDS011;12312;53.362;-1.518;2023-04-24T11:07:17;13.05;;;3.97;;
24153;SDS011;12312;53.362;-1.518;2023-04-24T11:10:01;11.85;;;3.92;;
24153;SDS011;12312;53.362;-1.518;2023-04-24T11:12:45;14.15;;;3.60;;
24153;SDS011;12312;53.362;-1.518;2023-04-24T11:15:29;12.43;;;3.50;;
24153;SDS011;12312;53.362;-1.518;2023-04-24T11:18:14;12.48;;;4.03;;
24153;SDS011;12312;53.362;-1.518;2023-04-24T11:20:59;8.23;;;3.30;;
24153;SDS011;12312;53.362;-1.518;2023-04-24T11:23:54;10.60;;;3.90;;
24153;SDS011;12312;53.362;-1.518;2023-04-24T11:26:39;13.48;;;3.67;;
24153;SDS011;12312;53.362;-1.518;2023-04-24T11:32:40;15.55;;;3.80;;
24153;SDS011;12312;53.362;-1.518;2023-04-24T11:35:25;17.02;;;3.40;;
24153;SDS011;12312;53.362;-1.518;2023-04-24T11:38:11;11.68;;;3.33;;
24153;SDS011;12312;53.362;-1.518;2023-04-24T11:40:55;10.75;;;3.10;;
24153;SDS011;12312;53.362;-1.518;2023-04-24T11:43:39;14.10;;;4.15;;
24153;SDS011;12312;53.362;-1.518;2023-04-24T11:46:28;17.75;;;4.63;;
24153;SDS011;12312;53.362;-1.518;2023-04-24T11:49:13;15.65;;;4.03;;
24153;SDS011;12312;53.362;-1.518;2023-04-24T11:51:57;16.92;;;4.07;;
24153;SDS011;12312;53.362;-1.518;2023-04-24T11:57:32;11.10;;;3.63;;
24153;SDS011;12312;53.362;-1.518;2023-04-24T12:00:22;9.55;;;3.20;;
24153;SDS011;12312;53.362;-1.518;2023-04-24T12:03:08;10.75;;;3.40;;
24153;SDS011;12312;53.362;-1.518;2023-04-24T12:06:03;9.00;;;3.35;;
24153;SDS011;12312;53.362;-1.518;2023-04-24T12:08:49;10.93;;;3.03;;
24153;SDS011;12312;53.362;-1.518;2023-04-24T12:11:36;12.27;;;3.20;;
24153;SDS011;12312;53.362;-1.518;2023-04-24T12:14:48;9.20;;;3.58;;
24153;SDS011;12312;53.362;-1.518;2023-04-24T12:17:34;9.82;;;2.80;;
24153;SDS011;12312;53.362;-1.518;2023-04-24T12:20:24;10.35;;;3.22;;
24153;SDS011;12312;53.362;-1.518;2023-04-24T12:23:10;13.77;;;3.28;;
24153;SDS011;12312;53.362;-1.518;2023-04-24T12:25:54;12.82;;;3.30;;
24153;SDS011;12312;53.362;-1.518;2023-04-24T12:28:46;9.95;;;2.75;;
24153;SDS011;12312;53.362;-1.518;2023-04-24T12:31:32;7.28;;;2.35;;
24153;SDS011;12312;53.362;-1.518;2023-04-24T12:34:20;6.85;;;1.95;;
24153;SDS011;12312;53.362;-1.518;2023-04-24T12:37:11;10.38;;;2.60;;
24153;SDS011;12312;53.362;-1.518;2023-04-24T12:40:08;10.05;;;2.42;;
24153;SDS011;12312;53.362;-1.518;2023-04-24T12:42:54;9.35;;;2.78;;
24153;SDS011;12312;53.362;-1.518;2023-04-24T12:45:38;11.05;;;2.70;;
24153;SDS011;12312;53.362;-1.518;2023-04-24T12:48:22;11.57;;;2.55;;
24153;SDS011;12312;53.362;-1.518;2023-04-24T12:51:06;10.10;;;2.95;;
24153;SDS011;12312;53.362;-1.518;2023-04-24T12:53:50;15.68;;;3.20;;
24153;SDS011;12312;53.362;-1.518;2023-04-24T12:56:34;9.40;;;3.00;;
24153;SDS011;12312;53.362;-1.518;2023-04-24T12:59:23;11.73;;;2.83;;
24153;SDS011;12312;53.362;-1.518;2023-04-24T13:02:07;13.65;;;2.92;;
24153;SDS011;12312;53.362;-1.518;2023-04-24T13:04:52;10.77;;;3.10;;
24153;SDS011;12312;53.362;-1.518;2023-04-24T13:07:37;9.68;;;2.75;;
24153;SDS011;12312;53.362;-1.518;2023-04-24T13:10:21;11.48;;;2.95;;
24153;SDS011;12312;53.362;-1.518;2023-04-24T13:13:05;8.65;;;2.65;;
24153;SDS011;12312;53.362;-1.518;2023-04-24T13:15:49;8.07;;;2.60;;
24153;SDS011;12312;53.362;-1.518;2023-04-24T13:18:33;9.18;;;2.45;;
24153;SDS011;12312;53.362;-1.518;2023-04-24T13:21:17;9.90;;;2.60;;
24153;SDS011;12312;53.362;-1.518;2023-04-24T13:24:01;6.93;;;2.30;;
24153;SDS011;12312;53.362;-1.518;2023-04-24T13:26:48;9.70;;;2.92;;
24153;SDS011;12312;53.362;-1.518;2023-04-24T13:29:32;5.72;;;2.42;;
24153;SDS011;12312;53.362;-1.518;2023-04-24T13:32:16;9.98;;;2.85;;
24153;SDS011;12312;53.362;-1.518;2023-04-24T13:35:00;8.82;;;2.92;;
24153;SDS011;12312;53.362;-1.518;2023-04-24T13:37:45;10.80;;;2.92;;
24153;SDS011;12312;53.362;-1.518;2023-04-24T13:40:29;12.32;;;2.92;;
24153;SDS011;12312;53.362;-1.518;2023-04-24T13:43:13;9.70;;;3.20;;
24153;SDS011;12312;53.362;-1.518;2023-04-24T13:45:58;13.20;;;3.65;;
24153;SDS011;12312;53.362;-1.518;2023-04-24T13:48:45;12.18;;;3.38;;
24153;SDS011;12312;53.362;-1.518;2023-04-24T13:51:29;8.25;;;2.90;;
24153;SDS011;12312;53.362;-1.518;2023-04-24T13:54:13;15.75;;;3.33;;
24153;SDS011;12312;53.362;-1.518;2023-04-24T13:56:58;8.95;;;2.60;;
24153;SDS011;12312;53.362;-1.518;2023-04-24T13:59:42;11.15;;;3.47;;
24153;SDS011;12312;53.362;-1.518;2023-04-24T14:02:27;12.88;;;3.33;;
24153;SDS011;12312;53.362;-1.518;2023-04-24T14:05:12;15.35;;;3.40;;
24153;SDS011;12312;53.362;-1.518;2023-04-24T14:07:59;15.93;;;3.15;;
24153;SDS011;12312;53.362;-1.518;2023-04-24T14:10:43;13.82;;;2.95;;
24153;SDS011;12312;53.362;-1.518;2023-04-24T14:13:27;16.13;;;3.30;;
24153;SDS011;12312;53.362;-1.518;2023-04-24T14:16:11;13.35;;;3.75;;
24153;SDS011;12312;53.362;-1.518;2023-04-24T14:18:56;13.13;;;3.90;;
24153;SDS011;12312;53.362;-1.518;2023-04-24T14:21:40;16.52;;;3.70;;
24153;SDS011;12312;53.362;-1.518;2023-04-24T14:24:24;17.00;;;4.10;;
24153;SDS011;12312;53.362;-1.518;2023-04-24T14:27:08;13.38;;;3.55;;
24153;SDS011;12312;53.362;-1.518;2023-04-24T14:29:52;19.10;;;4.80;;
24153;SDS011;12312;53.362;-1.518;2023-04-24T14:32:35;15.32;;;4.18;;
24153;SDS011;12312;53.362;-1.518;2023-04-24T14:35:20;13.45;;;3.80;;
24153;SDS011;12312;53.362;-1.518;2023-04-24T14:38:03;14.48;;;3.85;;
24153;SDS011;12312;53.362;-1.518;2023-04-24T14:40:47;13.18;;;3.00;;
24153;SDS011;12312;53.362;-1.518;2023-04-24T14:43:31;17.45;;;3.47;;
24153;SDS011;12312;53.362;-1.518;2023-04-24T14:46:16;9.25;;;2.85;;
24153;SDS011;12312;53.362;-1.518;2023-04-24T14:49:00;10.40;;;2.95;;
24153;SDS011;12312;53.362;-1.518;2023-04-24T14:51:44;11.15;;;3.28;;
24153;SDS011;12312;53.362;-1.518;2023-04-24T14:54:28;8.95;;;2.90;;
24153;SDS011;12312;53.362;-1.518;2023-04-24T14:57:12;8.13;;;2.80;;
24153;SDS011;12312;53.362;-1.518;2023-04-24T14:59:56;5.93;;;2.45;;
24153;SDS011;12312;53.362;-1.518;2023-04-24T15:02:40;7.03;;;2.28;;
24153;SDS011;12312;53.362;-1.518;2023-04-24T15:05:27;7.18;;;2.25;;
24153;SDS011;12312;53.362;-1.518;2023-04-24T15:08:12;14.15;;;2.67;;
24153;SDS011;12312;53.362;-1.518;2023-04-24T15:10:56;10.07;;;3.20;;
24153;SDS011;12312;53.362;-1.518;2023-04-24T15:13:40;8.35;;;2.60;;
24153;SDS011;12312;53.362;-1.518;2023-04-24T15:16:24;10.63;;;3.05;;
24153;SDS011;12312;53.362;-1.518;2023-04-24T15:19:08;11.40;;;2.67;;
24153;SDS011;12312;53.362;-1.518;2023-04-24T15:21:53;12.73;;;3.05;;
24153;SDS011;12312;53.362;-1.518;2023-04-24T15:24:37;10.95;;;2.80;;
24153;SDS011;12312;53.362;-1.518;2023-04-24T15:27:21;6.80;;;2.65;;
24153;SDS011;12312;53.362;-1.518;2023-04-24T15:30:05;7.93;;;2.78;;
24153;SDS011;12312;53.362;-1.518;2023-04-24T15:32:50;10.88;;;3.42;;
24153;SDS011;12312;53.362;-1.518;2023-04-24T15:35:34;9.90;;;2.90;;
24153;SDS011;12312;53.362;-1.518;2023-04-24T15:38:18;14.93;;;3.70;;
24153;SDS011;12312;53.362;-1.518;2023-04-24T15:41:02;11.52;;;3.40;;
24153;SDS011;12312;53.362;-1.518;2023-04-24T15:43:47;8.40;;;3.35;;
24153;SDS011;12312;53.362;-1.518;2023-04-24T15:46:30;10.23;;;2.95;;
24153;SDS011;12312;53.362;-1.518;2023-04-24T15:49:15;13.45;;;3.55;;
24153;SDS011;12312;53.362;-1.518;2023-04-24T15:51:59;13.40;;;3.83;;
24153;SDS011;12312;53.362;-1.518;2023-04-24T15:54:43;20.08;;;3.92;;
24153;SDS011;12312;53.362;-1.518;2023-04-24T15:57:26;15.65;;;3.80;;
24153;SDS011;12312;53.362;-1.518;2023-04-24T16:00:11;18.40;;;3.85;;
24153;SDS011;12312;53.362;-1.518;2023-04-24T16:02:56;14.18;;;3.38;;
24153;SDS011;12312;53.362;-1.518;2023-04-24T16:05:40;16.52;;;3.58;;
24153;SDS011;12312;53.362;-1.518;2023-04-24T16:08:23;13.90;;;3.10;;
24153;SDS011;12312;53.362;-1.518;2023-04-24T16:11:07;14.73;;;3.88;;
24153;SDS011;12312;53.362;-1.518;2023-04-24T16:13:51;17.40;;;3.75;;
24153;SDS011;12312;53.362;-1.518;2023-04-24T16:16:36;12.32;;;3.60;;
24153;SDS011;12312;53.362;-1.518;2023-04-24T16:19:20;17.48;;;4.35;;
24153;SDS011;12312;53.362;-1.518;2023-04-24T16:22:05;16.88;;;4.22;;